createdAt,value
2023-03-27T00:01:46.554Z,100754.56
2023-03-27T00:04:50.943Z,100699.44
2023-03-27T00:07:58.816Z,100724.25
2023-03-27T00:11:03.209Z,100723.38
2023-03-27T00:14:07.693Z,100723.25
2023-03-27T00:17:11.953Z,100757.44
2023-03-27T00:20:18.107Z,100767.72
2023-03-27T00:23:23.555Z,100759.56
2023-03-27T00:26:27.287Z,100767.06
2023-03-27T00:29:31.796Z,100766.00
2023-03-27T00:32:36.427Z,100762.75
2023-03-27T00:35:40.588Z,100754.06
2023-03-27T00:38:46.533Z,100758.63
2023-03-27T00:41:51.209Z,100756.19
2023-03-27T00:44:55.917Z,100724.44
2023-03-27T00:48:05.225Z,100751.69
2023-03-27T00:51:11.027Z,100757.91
2023-03-27T00:54:22.617Z,100774.44
2023-03-27T00:57:28.445Z,100741.84
2023-03-27T01:00:33.851Z,100763.84
2023-03-27T01:03:38.180Z,100759.03
2023-03-27T01:06:44.374Z,100764.47
2023-03-27T01:09:49.004Z,100753.66
2023-03-27T01:13:16.728Z,100757.59
2023-03-27T01:16:29.795Z,100764.84
2023-03-27T01:19:58.449Z,100764.94
2023-03-27T01:23:09.957Z,100762.94
2023-03-27T01:26:46.133Z,100760.94
2023-03-27T01:30:02.295Z,100761.81
2023-03-27T01:33:28.542Z,100746.88
2023-03-27T01:36:48.888Z,100751.63
2023-03-27T01:39:59.378Z,100753.66
2023-03-27T01:43:11.972Z,100738.03
2023-03-27T01:46:21.171Z,100736.59
2023-03-27T01:49:49.755Z,100732.94
2023-03-27T01:53:07.030Z,100752.72
2023-03-27T01:56:27.020Z,100737.13
2023-03-27T01:59:49.360Z,100731.09
2023-03-27T02:03:15.320Z,100707.78
2023-03-27T02:06:31.482Z,100739.03
2023-03-27T02:09:45.203Z,100751.34
2023-03-27T02:13:34.120Z,100744.00
2023-03-27T02:16:46.885Z,100741.97
2023-03-27T02:20:04.363Z,100744.13
2023-03-27T02:23:18.538Z,100736.50
2023-03-27T02:26:25.539Z,100713.47
2023-03-27T02:29:42.572Z,100731.72
2023-03-27T02:32:58.137Z,100728.53
2023-03-27T02:36:29.535Z,100722.88
2023-03-27T02:39:51.241Z,100734.75
2023-03-27T02:43:17.680Z,100741.94
2023-03-27T02:46:31.311Z,100732.69
2023-03-27T02:49:47.531Z,100739.69
2023-03-27T02:52:57.888Z,100743.06
2023-03-27T02:56:05.192Z,100736.75
2023-03-27T02:59:37.911Z,100705.31
2023-03-27T03:02:43.003Z,100725.13
2023-03-27T03:05:47.718Z,100713.66
2023-03-27T03:08:55.610Z,100722.28
2023-03-27T03:12:00.802Z,100716.97
2023-03-27T03:15:08.130Z,100713.97
2023-03-27T03:18:14.011Z,100703.34
2023-03-27T03:21:18.612Z,100711.66
2023-03-27T03:24:23.264Z,100710.94
2023-03-27T03:27:29.912Z,100702.94
2023-03-27T03:30:46.528Z,100709.09
2023-03-27T03:33:50.519Z,100716.03
2023-03-27T03:36:56.198Z,100697.97
2023-03-27T03:40:12.632Z,100691.53
2023-03-27T03:43:26.755Z,100705.00
2023-03-27T03:46:31.909Z,100701.97
2023-03-27T03:49:36.870Z,100701.69
2023-03-27T03:52:41.784Z,100698.19
2023-03-27T03:55:47.332Z,100696.16
2023-03-27T03:58:51.678Z,100701.06
2023-03-27T04:01:58.401Z,100688.41
2023-03-27T04:05:08.560Z,100685.28
2023-03-27T04:08:15.220Z,100690.53
2023-03-27T04:11:54.690Z,100696.38
2023-03-27T04:15:28.338Z,100670.06
2023-03-27T04:18:42.566Z,100658.28
2023-03-27T04:21:57.242Z,100694.91
2023-03-27T04:25:07.770Z,100675.44
2023-03-27T04:28:17.213Z,100687.88
2023-03-27T04:31:27.011Z,100680.47
2023-03-27T04:34:51.132Z,100632.50
2023-03-27T04:38:18.130Z,100687.16
2023-03-27T04:41:23.627Z,100685.13
2023-03-27T04:44:30.163Z,100687.28
2023-03-27T04:47:38.798Z,100672.06
2023-03-27T04:50:50.311Z,100681.66
2023-03-27T04:54:08.898Z,100677.31
2023-03-27T04:57:19.879Z,100675.63
2023-03-27T05:00:26.441Z,100656.75
2023-03-27T05:03:54.364Z,100652.06
2023-03-27T05:07:11.079Z,100676.47
2023-03-27T05:10:16.548Z,100673.94
2023-03-27T05:13:20.810Z,100678.28
2023-03-27T05:16:25.053Z,100674.59
2023-03-27T05:19:34.337Z,100679.69
2023-03-27T05:22:40.111Z,100621.34
2023-03-27T05:26:00.130Z,100680.09
2023-03-27T05:29:22.022Z,100675.28
2023-03-27T05:32:36.465Z,100676.22
2023-03-27T05:35:58.939Z,100629.59
2023-03-27T05:39:05.466Z,100676.59
2023-03-27T05:42:15.253Z,100677.56
2023-03-27T05:45:20.964Z,100691.59
2023-03-27T05:48:25.333Z,100694.97
2023-03-27T05:51:35.119Z,100697.81
2023-03-27T05:54:39.473Z,100685.00
2023-03-27T05:57:48.060Z,100697.47
2023-03-27T06:00:52.652Z,100683.38
2023-03-27T06:03:58.702Z,100692.63
2023-03-27T06:07:21.228Z,100697.34
2023-03-27T06:10:26.663Z,100692.75
2023-03-27T06:13:49.603Z,100696.31
2023-03-27T06:16:58.265Z,100701.19
2023-03-27T06:20:20.759Z,100692.38
2023-03-27T06:23:28.896Z,100705.44
2023-03-27T06:26:33.573Z,100704.53
2023-03-27T06:29:42.744Z,100710.25
2023-03-27T06:32:51.934Z,100712.09
2023-03-27T06:36:01.182Z,100709.47
2023-03-27T06:39:07.746Z,100718.44
2023-03-27T06:42:12.455Z,100716.38
2023-03-27T06:45:34.969Z,100671.50
2023-03-27T06:48:54.570Z,100711.97
2023-03-27T06:51:58.988Z,100722.94
2023-03-27T06:55:04.982Z,100718.06
2023-03-27T06:58:09.399Z,100726.56
2023-03-27T07:01:14.348Z,100717.84
2023-03-27T07:04:36.459Z,100722.28
2023-03-27T07:07:58.295Z,100743.44
2023-03-27T07:11:11.268Z,100727.69
2023-03-27T07:14:30.896Z,100721.09
2023-03-27T07:17:47.989Z,100721.03
2023-03-27T07:20:56.485Z,100723.13
2023-03-27T07:24:01.712Z,100725.00
2023-03-27T07:27:10.367Z,100722.88
2023-03-27T07:30:16.204Z,100702.13
2023-03-27T07:33:21.731Z,100735.28
2023-03-27T07:36:26.974Z,100728.28
2023-03-27T07:39:42.252Z,100735.38
2023-03-27T07:42:46.702Z,100748.75
2023-03-27T07:45:58.654Z,100736.59
2023-03-27T07:49:04.117Z,100737.22
2023-03-27T07:52:10.139Z,100745.09
2023-03-27T07:55:23.908Z,100746.25
2023-03-27T07:58:38.418Z,100726.94
2023-03-27T08:01:43.116Z,100750.69
2023-03-27T08:04:48.037Z,100755.94
2023-03-27T08:07:53.814Z,100755.84
2023-03-27T08:11:29.640Z,100751.47
2023-03-27T08:14:35.833Z,100767.38
2023-03-27T08:17:55.243Z,100770.97
2023-03-27T08:21:26.451Z,100766.19
2023-03-27T08:24:31.984Z,100773.09
2023-03-27T08:27:49.232Z,100761.00
2023-03-27T08:30:54.261Z,100783.06
2023-03-27T08:34:10.414Z,100782.56
2023-03-27T08:37:22.127Z,100791.91
2023-03-27T08:40:52.993Z,100789.28
2023-03-27T08:44:07.160Z,100782.50
2023-03-27T08:47:30.607Z,100779.97
2023-03-27T08:50:57.261Z,100801.94
2023-03-27T08:54:13.691Z,100810.09
2023-03-27T08:57:23.941Z,100813.56
2023-03-27T09:00:40.565Z,100799.63
2023-03-27T09:04:06.650Z,100821.81
2023-03-27T09:07:17.953Z,100823.69
2023-03-27T09:10:57.007Z,100821.16
2023-03-27T09:14:23.383Z,100817.63
2023-03-27T09:17:40.557Z,100813.44
2023-03-27T09:21:04.961Z,100812.59
2023-03-27T09:24:17.590Z,100824.03
2023-03-27T09:27:50.982Z,100799.50
2023-03-27T09:31:41.228Z,100830.25
2023-03-27T09:34:48.924Z,100835.53
2023-03-27T09:38:32.722Z,100834.66
2023-03-27T09:41:46.994Z,100839.03
2023-03-27T09:44:59.707Z,100835.50
2023-03-27T09:48:15.497Z,100846.03
2023-03-27T09:51:41.254Z,100838.00
2023-03-27T09:55:31.829Z,100858.13
2023-03-27T09:58:47.828Z,100853.75
2023-03-27T10:02:01.259Z,100852.69
2023-03-27T10:05:23.027Z,100842.25
2023-03-27T10:08:38.879Z,100864.00
2023-03-27T10:12:19.433Z,100874.44
2023-03-27T10:15:30.863Z,100877.13
2023-03-27T10:18:43.164Z,100883.97
2023-03-27T10:21:54.975Z,100880.38
2023-03-27T10:25:30.445Z,100890.09
2023-03-27T10:29:19.894Z,100876.94
2023-03-27T10:32:45.752Z,100877.44
2023-03-27T10:36:11.395Z,100883.69
2023-03-27T10:39:17.656Z,100904.69
2023-03-27T10:42:45.146Z,100887.97
2023-03-27T10:45:54.445Z,100910.66
2023-03-27T10:49:25.554Z,100913.03
2023-03-27T10:53:15.939Z,100916.63
2023-03-27T10:56:48.586Z,100916.44
2023-03-27T11:00:25.553Z,100921.34
2023-03-27T11:04:06.248Z,100932.25
2023-03-27T11:07:42.768Z,100932.13
2023-03-27T11:10:55.106Z,100900.19
2023-03-27T11:14:20.046Z,100914.72
2023-03-27T11:17:53.585Z,100941.47
2023-03-27T11:21:56.846Z,100941.31
2023-03-27T11:25:09.187Z,100948.34
2023-03-27T11:28:32.675Z,100949.78
2023-03-27T11:31:50.248Z,100947.72
2023-03-27T11:35:18.739Z,100957.16
2023-03-27T11:38:52.482Z,100952.53
2023-03-27T11:42:00.459Z,100963.00
2023-03-27T11:45:10.728Z,100958.22
2023-03-27T11:48:43.630Z,100972.75
2023-03-27T11:52:24.704Z,100976.09
2023-03-27T11:55:52.144Z,100967.88
2023-03-27T11:59:30.667Z,100970.63
2023-03-27T12:03:00.415Z,100983.72
2023-03-27T12:06:32.059Z,100971.31
2023-03-27T12:09:57.938Z,100981.56
2023-03-27T12:14:01.545Z,100981.22
2023-03-27T12:17:32.890Z,100978.34
2023-03-27T12:21:16.662Z,100977.47
2023-03-27T12:25:04.635Z,100977.84
2023-03-27T12:29:23.358Z,100989.06
2023-03-27T12:33:02.554Z,100998.94
2023-03-27T12:36:15.064Z,100997.13
2023-03-27T12:39:27.994Z,101009.06
2023-03-27T12:43:05.278Z,101004.56
2023-03-27T12:46:40.891Z,100990.38
2023-03-27T12:49:57.512Z,101009.47
2023-03-27T12:53:20.083Z,101006.72
2023-03-27T12:56:35.528Z,101003.34
2023-03-27T12:59:51.639Z,100966.91
2023-03-27T13:03:18.309Z,101008.19
2023-03-27T13:07:01.134Z,101012.25
2023-03-27T13:10:34.153Z,101014.28
2023-03-27T13:14:06.619Z,101023.75
2023-03-27T13:17:51.784Z,100962.50
2023-03-27T13:21:19.895Z,101027.50
2023-03-27T13:24:34.486Z,101020.50
2023-03-27T13:27:38.851Z,101032.28
2023-03-27T13:30:45.587Z,101031.06
2023-03-27T13:34:29.642Z,101017.84
2023-03-27T13:37:48.936Z,101029.16
2023-03-27T13:40:56.444Z,101038.56
2023-03-27T13:44:08.985Z,101035.34
2023-03-27T13:47:33.928Z,101045.41
2023-03-27T13:51:01.840Z,101038.16
2023-03-27T13:54:33.511Z,101049.09
2023-03-27T13:58:01.083Z,101052.00
2023-03-27T14:01:35.095Z,101061.25
2023-03-27T14:05:09.901Z,101046.00
2023-03-27T14:08:34.427Z,101051.19
2023-03-27T14:12:28.768Z,101047.91
2023-03-27T14:16:04.457Z,101051.44
2023-03-27T14:20:00.412Z,101056.50
2023-03-27T14:23:29.212Z,101062.91
2023-03-27T14:26:47.005Z,101062.63
2023-03-27T14:30:21.492Z,101060.50
2023-03-27T14:34:15.450Z,101068.53
2023-03-27T14:37:29.738Z,101073.47
2023-03-27T14:40:48.261Z,101071.66
2023-03-27T14:43:57.823Z,101078.38
2023-03-27T14:47:12.760Z,101073.94
2023-03-27T14:50:20.009Z,101083.00
2023-03-27T14:53:29.402Z,101083.56
2023-03-27T14:56:48.523Z,101083.84
2023-03-27T15:00:08.770Z,101084.47
2023-03-27T15:03:25.116Z,101089.03
2023-03-27T15:06:30.208Z,101089.72
2023-03-27T15:09:38.136Z,101100.50
2023-03-27T15:13:02.464Z,101105.94
2023-03-27T15:16:08.374Z,101104.88
2023-03-27T15:19:20.806Z,101105.19
2023-03-27T15:22:37.936Z,101112.25
2023-03-27T15:25:47.984Z,101093.38
2023-03-27T15:29:10.235Z,101119.66
2023-03-27T15:32:19.811Z,101117.50
2023-03-27T15:35:36.165Z,101119.25
2023-03-27T15:38:40.823Z,101104.78
2023-03-27T15:41:45.570Z,101098.38
2023-03-27T15:44:49.689Z,101099.75
2023-03-27T15:48:07.615Z,101101.34
2023-03-27T15:51:28.841Z,101118.59
2023-03-27T15:54:36.350Z,101104.28
2023-03-27T15:57:41.916Z,101121.56
2023-03-27T16:00:51.868Z,101121.56
2023-03-27T16:04:03.340Z,101095.56
2023-03-27T16:07:22.182Z,101123.88
2023-03-27T16:10:32.344Z,101085.97
2023-03-27T16:14:00.339Z,101123.50
2023-03-27T16:17:28.809Z,101121.84
2023-03-27T16:20:38.139Z,101125.28
2023-03-27T16:23:44.679Z,101093.44
2023-03-27T16:26:49.577Z,101119.28
2023-03-27T16:29:55.273Z,101119.44
2023-03-27T16:33:00.787Z,101121.94
2023-03-27T16:36:05.560Z,101131.31
2023-03-27T16:39:13.033Z,101110.88
2023-03-27T16:42:25.799Z,101129.69
2023-03-27T16:45:34.169Z,101126.81
2023-03-27T16:48:38.614Z,101135.63
2023-03-27T16:51:45.384Z,101090.75
2023-03-27T16:54:50.017Z,101134.59
2023-03-27T16:57:55.916Z,101125.75
2023-03-27T17:01:00.768Z,101122.28
2023-03-27T17:04:05.531Z,101130.56
2023-03-27T17:07:14.426Z,101138.03
2023-03-27T17:10:18.824Z,101140.19
2023-03-27T17:13:23.199Z,101141.75
2023-03-27T17:16:27.681Z,101146.25
2023-03-27T17:19:34.315Z,101130.41
2023-03-27T17:22:38.695Z,101120.72
2023-03-27T17:25:45.303Z,101064.13
2023-03-27T17:28:49.564Z,101137.38
2023-03-27T17:31:54.136Z,101111.94
2023-03-27T17:34:58.584Z,101155.28
2023-03-27T17:38:03.626Z,101083.88
2023-03-27T17:41:08.152Z,101142.78
2023-03-27T17:44:14.162Z,101154.47
2023-03-27T17:47:18.845Z,101154.31
2023-03-27T17:50:23.241Z,101124.88
2023-03-27T17:53:28.395Z,101141.63
2023-03-27T17:56:32.735Z,101146.63
2023-03-27T17:59:39.286Z,101148.25
2023-03-27T18:02:44.815Z,101109.59
2023-03-27T18:05:49.445Z,101140.00
2023-03-27T18:08:53.524Z,101151.13
2023-03-27T18:11:57.807Z,101146.94
2023-03-27T18:15:02.140Z,101134.63
2023-03-27T18:18:07.536Z,101139.94
2023-03-27T18:21:12.173Z,101158.47
2023-03-27T18:24:17.446Z,101156.75
2023-03-27T18:27:21.274Z,101154.94
2023-03-27T18:30:25.488Z,101126.09
2023-03-27T18:33:30.751Z,101163.13
2023-03-27T18:36:35.069Z,101134.97
2023-03-27T18:39:39.384Z,101139.16
2023-03-27T18:42:47.519Z,101165.34
2023-03-27T18:46:03.160Z,101155.16
2023-03-27T18:49:21.611Z,101173.69
2023-03-27T18:52:28.974Z,101166.25
2023-03-27T18:55:34.190Z,101179.34
2023-03-27T18:58:38.538Z,101178.81
2023-03-27T19:01:42.842Z,101165.53
2023-03-27T19:04:48.748Z,101173.09
2023-03-27T19:07:58.433Z,101173.22
2023-03-27T19:11:02.707Z,101180.69
2023-03-27T19:14:25.570Z,101191.88
2023-03-27T19:17:49.938Z,101170.72
2023-03-27T19:21:14.649Z,101214.22
2023-03-27T19:24:26.331Z,101197.28
2023-03-27T19:27:38.822Z,101181.56
2023-03-27T19:30:44.432Z,101218.84
2023-03-27T19:33:49.084Z,101212.56
2023-03-27T19:36:53.062Z,101231.44
2023-03-27T19:39:57.335Z,101213.72
2023-03-27T19:43:03.228Z,101209.00
2023-03-27T19:46:15.748Z,101215.31
2023-03-27T19:49:21.410Z,101213.09
2023-03-27T19:52:29.495Z,101208.03
2023-03-27T19:55:33.841Z,101124.97
2023-03-27T19:58:38.351Z,101226.75
2023-03-27T20:01:44.986Z,101204.78
2023-03-27T20:04:49.341Z,101212.06
2023-03-27T20:07:53.997Z,101228.88
2023-03-27T20:10:58.832Z,101232.13
2023-03-27T20:14:03.893Z,101223.00
2023-03-27T20:17:21.388Z,101225.50
2023-03-27T20:20:32.438Z,101249.84
2023-03-27T20:23:39.451Z,101248.91
2023-03-27T20:26:48.760Z,101243.56
2023-03-27T20:29:57.533Z,101246.28
2023-03-27T20:33:17.199Z,101246.31
2023-03-27T20:40:22.260Z,101268.16
2023-03-27T20:43:27.969Z,101265.44
2023-03-27T20:46:36.760Z,101251.94
2023-03-27T20:49:44.668Z,101285.13
2023-03-27T20:52:49.004Z,101268.69
2023-03-27T20:56:03.426Z,101287.59
2023-03-27T20:59:08.422Z,101277.91
2023-03-27T21:02:22.430Z,101275.88
2023-03-27T21:05:27.294Z,101241.66
2023-03-27T21:08:32.321Z,101292.22
2023-03-27T21:11:37.170Z,101297.09
2023-03-27T21:14:41.554Z,101293.88
2023-03-27T21:17:48.954Z,101262.88
2023-03-27T21:20:56.990Z,101303.75
2023-03-27T21:24:01.608Z,101299.50
2023-03-27T21:27:09.053Z,101294.34
2023-03-27T21:30:16.159Z,101294.75
2023-03-27T21:33:20.943Z,101283.84
2023-03-27T21:36:27.983Z,101308.22
2023-03-27T21:39:33.626Z,101311.72
2023-03-27T21:42:37.915Z,101303.78
2023-03-27T21:45:42.406Z,101315.25
2023-03-27T21:48:50.972Z,101299.19
2023-03-27T21:51:55.360Z,101333.94
2023-03-27T21:55:03.333Z,101331.97
2023-03-27T21:58:08.521Z,101343.53
2023-03-27T22:01:12.989Z,101270.94
2023-03-27T22:04:18.853Z,101333.44
2023-03-27T22:07:24.187Z,101345.66
2023-03-27T22:10:28.681Z,101348.41
2023-03-27T22:13:32.999Z,101347.38
2023-03-27T22:16:37.468Z,101351.53
2023-03-27T22:19:41.524Z,101353.41
2023-03-27T22:22:45.659Z,101358.78
2023-03-27T22:25:56.363Z,101345.59
2023-03-27T22:29:00.675Z,101350.84
2023-03-27T22:32:05.709Z,101347.34
2023-03-27T22:35:12.454Z,101360.56
2023-03-27T22:38:17.495Z,101358.78
2023-03-27T22:41:21.935Z,101364.72
2023-03-27T22:44:27.070Z,101339.38
2023-03-27T22:47:33.073Z,101361.41
2023-03-27T22:50:37.416Z,101365.75
2023-03-27T22:53:42.240Z,101376.28
2023-03-27T22:56:47.606Z,101372.59
2023-03-27T22:59:51.995Z,101377.69
2023-03-27T23:02:56.799Z,101380.56
2023-03-27T23:06:01.947Z,101380.44
2023-03-27T23:09:06.510Z,101380.66
2023-03-27T23:12:10.864Z,101379.91
2023-03-27T23:15:14.734Z,101390.53
2023-03-27T23:18:24.613Z,101386.06
2023-03-27T23:21:28.983Z,101387.00
2023-03-27T23:24:33.248Z,101391.34
2023-03-27T23:27:37.776Z,101379.94
2023-03-27T23:30:45.312Z,101400.06
2023-03-27T23:33:51.948Z,101394.91
2023-03-27T23:36:56.393Z,101396.59
2023-03-27T23:40:00.640Z,101401.69
2023-03-27T23:43:06.022Z,101411.84
2023-03-27T23:46:11.280Z,101396.34
2023-03-27T23:49:15.571Z,101409.50
2023-03-27T23:52:19.747Z,101422.91
2023-03-27T23:55:23.835Z,101379.47
2023-03-27T23:58:29.478Z,101428.03
